createdAt,value
2017-04-02T00:00:25.131Z,16.56
2017-04-02T00:01:05.707Z,16.56
2017-04-02T00:01:46.284Z,16.51
2017-04-02T00:02:26.864Z,16.47
2017-04-02T00:03:07.446Z,16.46
2017-04-02T00:03:48.034Z,16.46
2017-04-02T00:04:28.650Z,16.41
2017-04-02T00:05:09.232Z,16.39
2017-04-02T00:05:49.814Z,16.36
2017-04-02T00:06:30.420Z,16.41
2017-04-02T00:07:10.987Z,16.35
2017-04-02T00:07:51.618Z,16.39
2017-04-02T00:08:32.235Z,16.31
2017-04-02T00:09:12.805Z,16.38
2017-04-02T00:09:53.373Z,16.33
2017-04-02T00:10:33.957Z,16.33
2017-04-02T00:11:14.529Z,16.33
2017-04-02T00:11:55.115Z,16.32
2017-04-02T00:12:35.698Z,16.29
2017-04-02T00:13:16.294Z,16.29
2017-04-02T00:13:56.872Z,16.26
2017-04-02T00:14:37.452Z,16.32
2017-04-02T00:15:18.057Z,16.26
2017-04-02T00:15:58.652Z,16.26
2017-04-02T00:16:39.265Z,16.2
2017-04-02T00:17:19.824Z,16.23
2017-04-02T00:18:00.392Z,16.26
2017-04-02T00:18:40.986Z,16.21
2017-04-02T00:19:21.571Z,16.26
2017-04-02T00:20:02.159Z,16.23
2017-04-02T00:20:42.733Z,16.21
2017-04-02T00:21:23.363Z,16.24
2017-04-02T00:22:03.980Z,16.23
2017-04-02T00:22:44.589Z,16.17
2017-04-02T00:23:25.183Z,16.23
2017-04-02T00:24:05.793Z,16.16
2017-04-02T00:24:46.385Z,16.15
2017-04-02T00:25:26.979Z,16.16
2017-04-02T00:26:07.571Z,16.13
2017-04-02T00:26:48.141Z,16.13
2017-04-02T00:27:28.752Z,16.09
2017-04-02T00:28:09.342Z,16.05
2017-04-02T00:28:49.932Z,16.08
2017-04-02T00:29:37.085Z,16.04
2017-04-02T00:30:17.673Z,16
2017-04-02T00:30:58.238Z,16.02
2017-04-02T00:31:38.821Z,16
2017-04-02T00:32:19.405Z,16.09
2017-04-02T00:32:59.996Z,15.97
2017-04-02T00:33:40.572Z,15.98
2017-04-02T00:34:21.162Z,15.98
2017-04-02T00:35:01.750Z,15.98
2017-04-02T00:35:42.361Z,15.98
2017-04-02T00:36:22.972Z,15.95
2017-04-02T00:37:03.548Z,15.9
2017-04-02T00:37:44.132Z,15.92
2017-04-02T00:38:24.708Z,15.91
2017-04-02T00:39:05.294Z,15.92
2017-04-02T00:39:45.879Z,15.92
2017-04-02T00:40:26.461Z,15.91
2017-04-02T00:41:07.043Z,15.95
2017-04-02T00:41:47.617Z,15.83
2017-04-02T00:42:28.286Z,15.9
2017-04-02T00:43:08.863Z,15.9
2017-04-02T00:43:49.448Z,15.94
2017-04-02T00:44:30.025Z,15.86
2017-04-02T00:45:10.657Z,15.84
2017-04-02T00:45:51.231Z,15.86
2017-04-02T00:46:31.824Z,15.8
2017-04-02T00:47:12.419Z,15.77
2017-04-02T00:47:53.009Z,15.8
2017-04-02T00:48:33.589Z,15.79
2017-04-02T00:49:14.165Z,15.77
2017-04-02T00:49:54.744Z,15.82
2017-04-02T00:50:35.331Z,15.79
2017-04-02T00:51:15.934Z,15.8
2017-04-02T00:51:56.517Z,15.79
2017-04-02T00:52:37.090Z,15.76
2017-04-02T00:53:17.662Z,15.75
2017-04-02T00:53:58.264Z,15.7
2017-04-02T00:54:38.864Z,15.65
2017-04-02T00:55:19.416Z,15.72
2017-04-02T00:56:00.006Z,15.65
2017-04-02T00:56:40.598Z,15.67
2017-04-02T00:57:21.188Z,15.7
2017-04-02T00:58:01.799Z,15.64
2017-04-02T00:58:42.369Z,15.73
2017-04-02T00:59:22.988Z,15.73
2017-04-02T01:00:03.574Z,15.61
2017-04-02T01:00:44.169Z,15.65
2017-04-02T01:01:24.771Z,15.57
2017-04-02T01:02:05.364Z,15.62
2017-04-02T01:02:45.961Z,15.61
2017-04-02T01:03:26.545Z,15.54
2017-04-02T01:04:07.127Z,15.61
2017-04-02T01:04:47.717Z,15.55
2017-04-02T01:05:28.297Z,15.54
2017-04-02T01:06:08.867Z,15.51
2017-04-02T01:06:49.498Z,15.44
2017-04-02T01:07:30.060Z,15.51
2017-04-02T01:08:10.657Z,15.52
2017-04-02T01:08:51.249Z,15.44
2017-04-02T01:09:31.815Z,15.46
2017-04-02T01:10:12.403Z,15.44
2017-04-02T01:10:52.987Z,15.33
2017-04-02T01:11:33.559Z,15.31
2017-04-02T01:12:14.144Z,15.31
2017-04-02T01:12:54.726Z,15.31
2017-04-02T01:13:35.310Z,15.37
2017-04-02T01:14:16.850Z,15.35
2017-04-02T01:14:57.440Z,15.28
2017-04-02T01:15:42.847Z,15.28
2017-04-02T01:16:23.467Z,15.33
2017-04-02T01:17:04.075Z,15.28
2017-04-02T01:17:44.662Z,15.25
2017-04-02T01:18:25.273Z,15.28
2017-04-02T01:19:05.866Z,15.28
2017-04-02T01:19:46.505Z,15.28
2017-04-02T01:20:27.091Z,15.27
2017-04-02T01:21:07.700Z,15.28
2017-04-02T01:21:48.303Z,15.15
2017-04-02T01:22:28.901Z,15.29
2017-04-02T01:23:09.472Z,15.25
2017-04-02T01:23:50.068Z,15.28
2017-04-02T01:24:30.656Z,15.24
2017-04-02T01:25:11.245Z,15.22
2017-04-02T01:25:51.825Z,15.21
2017-04-02T01:26:32.411Z,15.27
2017-04-02T01:27:12.990Z,15.18
2017-04-02T01:27:53.592Z,15.22
2017-04-02T01:28:34.192Z,15.14
2017-04-02T01:29:14.759Z,15.14
2017-04-02T01:29:55.391Z,15.11
2017-04-02T01:30:35.944Z,15.15
2017-04-02T01:31:16.520Z,15.09
2017-04-02T01:31:57.130Z,15.09
2017-04-02T01:32:37.744Z,15.15
2017-04-02T01:33:18.303Z,15.15
2017-04-02T01:33:58.906Z,15.1
2017-04-02T01:34:39.477Z,15.14
2017-04-02T01:35:20.071Z,15.14
2017-04-02T01:36:00.679Z,15.1
2017-04-02T01:36:41.267Z,15.11
2017-04-02T01:37:21.876Z,15.1
2017-04-02T01:38:02.445Z,15.07
2017-04-02T01:38:43.044Z,15.14
2017-04-02T01:39:23.624Z,15.15
2017-04-02T01:40:04.222Z,15.09
2017-04-02T01:40:44.817Z,15.1
2017-04-02T01:41:25.416Z,15.15
2017-04-02T01:42:05.992Z,15.09
2017-04-02T01:42:46.577Z,15.09
2017-04-02T01:43:27.143Z,15.09
2017-04-02T01:44:07.734Z,15.07
2017-04-02T01:44:48.333Z,15.07
2017-04-02T01:45:28.899Z,15.09
2017-04-02T01:46:09.473Z,15.09
2017-04-02T01:46:50.049Z,15.09
2017-04-02T01:47:30.652Z,15.09
2017-04-02T01:48:11.246Z,15.06
2017-04-02T01:48:51.842Z,15.1
2017-04-02T01:49:32.437Z,15.06
2017-04-02T01:50:13.021Z,15.17
2017-04-02T01:50:53.667Z,15.11
2017-04-02T01:51:34.252Z,15.18
2017-04-02T01:52:14.828Z,15.11
2017-04-02T01:52:55.394Z,15.22
2017-04-02T01:53:35.988Z,15.19
2017-04-02T01:54:16.618Z,15.18
2017-04-02T01:54:57.208Z,15.15
2017-04-02T01:55:37.782Z,15.06
2017-04-02T01:56:18.378Z,15.15
2017-04-02T01:56:58.956Z,15.19
2017-04-02T01:57:39.528Z,15.11
2017-04-02T01:58:20.114Z,15.11
2017-04-02T01:59:00.698Z,15.17
2017-04-02T01:59:41.282Z,15.18
2017-04-02T02:00:21.856Z,15.19
2017-04-02T02:01:02.437Z,15.18
2017-04-02T02:01:43.036Z,15.17
2017-04-02T02:02:23.603Z,15.15
2017-04-02T02:03:04.179Z,15.15
2017-04-02T02:03:44.770Z,15.22
2017-04-02T02:04:25.367Z,15.15
2017-04-02T02:05:05.989Z,15.17
2017-04-02T02:05:46.614Z,15.19
2017-04-02T02:06:27.199Z,15.19
2017-04-02T02:07:07.797Z,15.15
2017-04-02T02:07:48.384Z,15.22
2017-04-02T02:08:28.992Z,15.19
2017-04-02T02:09:09.585Z,15.22
2017-04-02T02:09:50.186Z,15.18
2017-04-02T02:10:30.805Z,15.21
2017-04-02T02:11:11.397Z,15.17
2017-04-02T02:11:51.993Z,15.24
2017-04-02T02:12:32.582Z,15.1
2017-04-02T02:13:13.163Z,15.15
2017-04-02T02:13:53.745Z,15.09
2017-04-02T02:14:34.358Z,15.11
2017-04-02T02:15:14.933Z,15.11
2017-04-02T02:15:55.508Z,15.07
2017-04-02T02:16:36.111Z,15.1
2017-04-02T02:17:16.694Z,15.04
2017-04-02T02:17:57.269Z,15.09
2017-04-02T02:18:37.872Z,15.15
2017-04-02T02:19:18.471Z,15.11
2017-04-02T02:19:59.062Z,15.09
2017-04-02T02:20:39.645Z,15.15
2017-04-02T02:21:20.242Z,15.09
2017-04-02T02:22:00.832Z,15.11
2017-04-02T02:22:41.424Z,15.09
2017-04-02T02:23:22.001Z,15.11
2017-04-02T02:24:02.570Z,15.09
2017-04-02T02:24:43.182Z,15.09
2017-04-02T02:25:23.798Z,15.09
2017-04-02T02:26:04.372Z,15.15
2017-04-02T02:26:44.956Z,15.14
2017-04-02T02:27:25.559Z,15.11
2017-04-02T02:28:06.167Z,15.1
2017-04-02T02:28:46.740Z,15.09
2017-04-02T02:29:27.302Z,15.15
2017-04-02T02:30:07.901Z,15.03
2017-04-02T02:30:50.336Z,15.03
2017-04-02T02:31:31.004Z,14.92
2017-04-02T02:32:11.642Z,15.02
2017-04-02T02:32:52.236Z,15
2017-04-02T02:33:32.830Z,14.96
2017-04-02T02:34:13.399Z,14.94
2017-04-02T02:34:53.993Z,15.02
2017-04-02T02:35:34.564Z,15.02
2017-04-02T02:36:15.147Z,14.99
2017-04-02T02:36:55.719Z,14.94
2017-04-02T02:37:36.289Z,14.89
2017-04-02T02:38:16.886Z,14.86
2017-04-02T02:38:57.474Z,14.92
2017-04-02T02:39:38.040Z,14.88
2017-04-02T02:40:18.616Z,14.92
2017-04-02T02:40:59.203Z,14.78
2017-04-02T02:41:39.815Z,14.78
2017-04-02T02:42:20.387Z,14.82
2017-04-02T02:43:00.979Z,14.81
2017-04-02T02:43:41.568Z,14.79
2017-04-02T02:44:22.174Z,14.84
2017-04-02T02:45:02.753Z,14.84
2017-04-02T02:45:43.339Z,14.81
2017-04-02T02:46:23.984Z,14.84
2017-04-02T02:47:04.549Z,14.77
2017-04-02T02:47:45.132Z,14.82
2017-04-02T02:48:25.723Z,14.77
2017-04-02T02:49:06.301Z,14.81
2017-04-02T02:49:46.887Z,14.7
2017-04-02T02:50:27.481Z,14.72
2017-04-02T02:51:08.054Z,14.69
2017-04-02T02:51:48.629Z,14.68
2017-04-02T02:52:29.209Z,14.77
2017-04-02T02:53:14.680Z,14.7
2017-04-02T02:53:55.282Z,14.69
2017-04-02T02:54:35.841Z,14.66
2017-04-02T02:55:16.468Z,14.68
2017-04-02T02:55:57.053Z,14.6
2017-04-02T02:56:37.645Z,14.6
2017-04-02T02:57:18.207Z,14.69
2017-04-02T02:57:58.787Z,14.68
2017-04-02T02:58:39.433Z,14.63
2017-04-02T02:59:20.005Z,14.66
2017-04-02T03:00:00.585Z,14.65
2017-04-02T03:00:41.181Z,14.63
2017-04-02T03:05:22.952Z,14.66
2017-04-02T03:06:03.503Z,14.66
2017-04-02T03:07:51.262Z,14.68
2017-04-02T03:08:31.875Z,14.69
2017-04-02T03:09:12.423Z,14.68
2017-04-02T03:09:53.015Z,14.63
2017-04-02T03:10:33.597Z,14.68
2017-04-02T03:11:14.192Z,14.65
2017-04-02T03:11:54.808Z,14.65
2017-04-02T03:12:35.437Z,14.72
2017-04-02T03:13:16.002Z,14.65
2017-04-02T03:13:56.608Z,14.7
2017-04-02T03:14:37.185Z,14.66
2017-04-02T03:15:17.775Z,14.6
2017-04-02T03:15:58.391Z,14.68
2017-04-02T03:16:39.026Z,14.68
2017-04-02T03:17:19.611Z,14.65
2017-04-02T03:18:00.186Z,14.63
2017-04-02T03:18:40.747Z,14.62
2017-04-02T03:19:21.358Z,14.59
2017-04-02T03:20:01.975Z,14.6
2017-04-02T03:20:42.594Z,14.54
2017-04-02T03:21:23.183Z,14.53
2017-04-02T03:22:03.753Z,14.51
2017-04-02T03:22:44.355Z,14.47
2017-04-02T03:23:24.938Z,14.54
2017-04-02T03:25:38.015Z,14.51
2017-04-02T03:26:18.600Z,14.47
2017-04-02T03:28:12.903Z,14.59
2017-04-02T03:28:53.496Z,14.5
2017-04-02T03:29:34.076Z,14.53
2017-04-02T03:30:14.658Z,14.53
2017-04-02T03:31:45.851Z,14.53
2017-04-02T03:32:26.450Z,14.5
2017-04-02T03:33:07.714Z,14.5
2017-04-02T03:34:45.350Z,14.5
2017-04-02T03:35:26.666Z,14.51
2017-04-02T03:37:39.941Z,14.55
2017-04-02T03:38:20.551Z,14.58
2017-04-02T03:39:01.125Z,14.5
2017-04-02T03:39:41.720Z,14.5
2017-04-02T03:40:22.316Z,14.51
2017-04-02T03:41:02.884Z,14.53
2017-04-02T03:41:43.465Z,14.45
2017-04-02T03:42:24.084Z,14.5
2017-04-02T03:43:04.691Z,14.53
2017-04-02T03:43:53.774Z,14.53
2017-04-02T03:44:34.360Z,14.53
2017-04-02T03:45:14.937Z,14.5
2017-04-02T03:45:55.500Z,14.58
2017-04-02T03:46:36.066Z,14.54
2017-04-02T03:47:16.684Z,14.58
2017-04-02T03:47:57.266Z,14.54
2017-04-02T03:48:37.844Z,14.53
2017-04-02T03:49:18.437Z,14.58
2017-04-02T03:49:59.007Z,14.53
2017-04-02T03:50:39.591Z,14.58
2017-04-02T03:51:20.176Z,14.51
2017-04-02T03:52:00.775Z,14.51
2017-04-02T03:52:41.346Z,14.53
2017-04-02T03:53:21.916Z,14.55
2017-04-02T03:54:02.533Z,14.47
2017-04-02T03:54:43.106Z,14.51
2017-04-02T03:55:23.682Z,14.45
2017-04-02T03:56:04.260Z,14.48
2017-04-02T03:56:44.849Z,14.35
2017-04-02T03:57:25.415Z,14.36
2017-04-02T03:58:05.990Z,14.33
2017-04-02T03:58:46.566Z,14.37
2017-04-02T03:59:27.140Z,14.36
2017-04-02T04:00:07.724Z,14.35
2017-04-02T04:00:48.315Z,14.35
2017-04-02T04:01:28.915Z,14.36
2017-04-02T04:02:09.494Z,14.48
2017-04-02T04:02:50.111Z,14.32
2017-04-02T04:03:30.772Z,14.41
2017-04-02T04:04:11.354Z,14.33
2017-04-02T04:04:51.965Z,14.44
2017-04-02T04:05:32.537Z,14.35
2017-04-02T04:06:13.172Z,14.4
2017-04-02T04:06:53.745Z,14.41
2017-04-02T04:07:34.314Z,14.35
2017-04-02T04:08:14.895Z,14.3
2017-04-02T04:08:55.460Z,14.32
2017-04-02T04:09:36.063Z,14.3
2017-04-02T04:10:16.658Z,14.25
2017-04-02T04:10:57.226Z,14.25
2017-04-02T04:11:37.802Z,14.28
2017-04-02T04:12:18.385Z,14.33
2017-04-02T04:12:58.964Z,14.29
2017-04-02T04:13:39.547Z,14.26
2017-04-02T04:14:20.140Z,14.25
2017-04-02T04:15:00.743Z,14.25
2017-04-02T04:15:41.327Z,14.22
2017-04-02T04:16:21.919Z,14.22
2017-04-02T04:17:02.490Z,14.12
2017-04-02T04:17:43.073Z,14.12
2017-04-02T04:18:23.672Z,14.12
2017-04-02T04:19:04.272Z,14.11
2017-04-02T04:19:44.852Z,14
2017-04-02T04:20:25.465Z,14.08
2017-04-02T04:21:08.578Z,14.04
2017-04-02T04:21:49.149Z,14.1
2017-04-02T04:22:29.730Z,14.03
2017-04-02T04:23:10.291Z,14.05
2017-04-02T04:23:50.872Z,14.04
2017-04-02T04:24:31.449Z,14
2017-04-02T04:25:12.067Z,14.07
2017-04-02T04:25:52.645Z,14.03
2017-04-02T04:26:33.235Z,14.04
2017-04-02T04:27:13.823Z,14.1
2017-04-02T04:27:54.401Z,13.99
2017-04-02T04:28:35.007Z,13.99
2017-04-02T04:29:15.608Z,13.99
2017-04-02T04:29:56.193Z,14.07
2017-04-02T04:30:36.778Z,14
2017-04-02T04:31:17.358Z,13.99
2017-04-02T04:31:58.778Z,14.07
2017-04-02T04:32:39.356Z,14
2017-04-02T04:33:19.951Z,13.96
2017-04-02T04:34:00.525Z,14
2017-04-02T04:34:41.114Z,14.03
2017-04-02T04:35:21.691Z,13.99
2017-04-02T04:36:02.300Z,13.96
2017-04-02T04:36:42.897Z,13.95
2017-04-02T04:37:23.488Z,13.99
2017-04-02T04:38:04.068Z,13.9
2017-04-02T04:38:44.656Z,13.92
2017-04-02T04:39:25.227Z,14.03
2017-04-02T04:40:06.438Z,13.95
2017-04-02T04:40:47.037Z,13.92
2017-04-02T04:41:27.637Z,13.93
2017-04-02T04:42:08.212Z,13.89
2017-04-02T04:42:48.854Z,13.89
2017-04-02T04:43:29.467Z,13.9
2017-04-02T04:44:10.122Z,13.9
2017-04-02T04:44:50.672Z,13.89
2017-04-02T04:46:43.596Z,13.87
2017-04-02T04:47:24.195Z,13.87
2017-04-02T04:48:04.768Z,13.87
2017-04-02T04:48:45.659Z,13.85
2017-04-02T04:49:26.242Z,13.87
2017-04-02T04:50:06.844Z,13.9
2017-04-02T04:50:47.426Z,13.87
2017-04-02T04:51:27.995Z,13.89
2017-04-02T04:52:09.286Z,13.9
2017-04-02T04:52:49.875Z,13.9
2017-04-02T04:53:30.477Z,13.92
2017-04-02T04:54:11.100Z,13.87
2017-04-02T04:54:51.675Z,13.87
2017-04-02T04:55:32.241Z,13.93
2017-04-02T04:56:12.811Z,13.92
2017-04-02T04:56:53.403Z,13.89
2017-04-02T04:57:33.983Z,13.89
2017-04-02T04:58:15.535Z,13.89
2017-04-02T04:58:56.103Z,13.95
2017-04-02T04:59:36.715Z,13.9
2017-04-02T05:00:17.314Z,13.92
2017-04-02T05:00:58.884Z,13.87
2017-04-02T05:01:39.477Z,13.92
2017-04-02T05:02:20.077Z,13.86
2017-04-02T05:03:00.663Z,13.89
2017-04-02T05:03:41.288Z,13.85
2017-04-02T05:04:21.874Z,13.9
2017-04-02T05:05:02.496Z,13.81
2017-04-02T05:05:43.081Z,13.86
2017-04-02T05:06:23.667Z,13.89
2017-04-02T05:07:04.246Z,13.9
2017-04-02T05:07:44.814Z,13.83
2017-04-02T05:08:25.392Z,13.89
2017-04-02T05:09:05.993Z,13.83
2017-04-02T05:09:46.549Z,13.87
2017-04-02T05:10:27.137Z,13.89
2017-04-02T05:11:07.735Z,13.9
2017-04-02T05:11:48.322Z,13.95
2017-04-02T05:12:28.893Z,13.9
2017-04-02T05:13:09.472Z,13.93
2017-04-02T05:13:50.035Z,13.86
2017-04-02T05:14:30.614Z,13.9
2017-04-02T05:15:11.196Z,13.93
2017-04-02T05:15:51.857Z,13.92
2017-04-02T05:16:32.454Z,13.89
2017-04-02T05:17:13.029Z,13.81
2017-04-02T05:17:53.614Z,13.81
2017-04-02T05:18:34.210Z,13.85
2017-04-02T05:19:14.784Z,13.9
2017-04-02T05:19:55.366Z,13.89
2017-04-02T05:20:35.974Z,13.9
2017-04-02T05:21:16.559Z,13.86
2017-04-02T05:21:57.134Z,13.86
2017-04-02T05:22:37.773Z,13.85
2017-04-02T05:23:18.344Z,13.85
2017-04-02T05:23:58.911Z,13.89
2017-04-02T05:24:39.483Z,13.85
2017-04-02T05:25:20.051Z,13.85
2017-04-02T05:26:00.622Z,13.86
2017-04-02T05:26:41.204Z,13.89
2017-04-02T05:27:21.788Z,13.83
2017-04-02T05:28:02.374Z,13.89
2017-04-02T05:28:42.960Z,13.89
2017-04-02T05:29:23.532Z,13.86
2017-04-02T05:30:04.149Z,13.89
2017-04-02T05:30:44.716Z,13.95
2017-04-02T05:31:25.349Z,13.89
2017-04-02T05:32:05.925Z,13.92
2017-04-02T05:32:46.507Z,13.89
2017-04-02T05:33:27.165Z,13.92
2017-04-02T05:34:07.751Z,13.81
2017-04-02T05:34:48.331Z,13.86
2017-04-02T05:35:28.939Z,13.87
2017-04-02T05:36:09.544Z,13.89
2017-04-02T05:36:50.129Z,13.89
2017-04-02T05:37:30.743Z,13.86
2017-04-02T05:38:11.313Z,13.92
2017-04-02T05:38:51.905Z,13.79
2017-04-02T05:39:32.548Z,13.92
2017-04-02T05:40:13.197Z,13.89
2017-04-02T05:40:53.762Z,13.89
2017-04-02T05:41:34.396Z,13.87
2017-04-02T05:42:14.960Z,13.85
2017-04-02T05:42:55.583Z,13.92
2017-04-02T05:43:36.163Z,13.96
2017-04-02T05:44:16.740Z,13.87
2017-04-02T05:44:57.333Z,13.87
2017-04-02T05:45:37.942Z,13.89
2017-04-02T05:46:18.522Z,13.95
2017-04-02T05:46:59.191Z,13.9
2017-04-02T05:47:39.801Z,13.87
2017-04-02T05:48:20.381Z,13.93
2017-04-02T05:49:00.986Z,13.9
2017-04-02T05:49:41.575Z,13.92
2017-04-02T05:50:22.163Z,13.95
2017-04-02T05:51:02.773Z,13.9
2017-04-02T05:51:43.377Z,13.9
2017-04-02T05:52:23.966Z,13.93
2017-04-02T05:53:04.538Z,13.9
2017-04-02T05:53:45.099Z,13.95
2017-04-02T05:54:25.682Z,13.87
2017-04-02T05:55:06.271Z,13.99
2017-04-02T05:55:46.867Z,13.9
2017-04-02T05:56:27.518Z,13.79
2017-04-02T05:57:08.192Z,13.87
2017-04-02T05:57:48.824Z,13.86
2017-04-02T05:58:29.380Z,13.96
2017-04-02T05:59:09.992Z,13.89
2017-04-02T05:59:50.584Z,13.89
2017-04-02T06:00:31.223Z,13.9
2017-04-02T06:01:11.776Z,13.83
2017-04-02T06:01:52.370Z,13.92
2017-04-02T06:02:32.938Z,13.92
2017-04-02T06:04:54.069Z,13.93
2017-04-02T06:05:34.651Z,13.95
2017-04-02T06:06:15.242Z,13.87
2017-04-02T06:06:55.856Z,13.9
2017-04-02T06:07:36.435Z,13.89
2017-04-02T06:08:17.003Z,13.95
2017-04-02T06:08:57.579Z,13.89
2017-04-02T06:11:10.648Z,13.93
2017-04-02T06:11:51.219Z,13.86
2017-04-02T06:12:31.791Z,13.95
2017-04-02T06:13:12.380Z,13.93
2017-04-02T06:13:53.011Z,13.86
2017-04-02T06:14:33.595Z,13.92
2017-04-02T06:16:55.164Z,14
2017-04-02T06:17:35.730Z,14
2017-04-02T06:18:16.295Z,13.96
2017-04-02T06:18:56.880Z,14.05
2017-04-02T06:19:37.449Z,14.03
2017-04-02T06:20:18.031Z,14.08
2017-04-02T06:20:58.609Z,13.99
2017-04-02T06:21:39.205Z,14.07
2017-04-02T06:22:19.793Z,13.99
2017-04-02T06:23:00.388Z,13.93
2017-04-02T06:23:40.966Z,13.85
2017-04-02T06:24:21.538Z,13.85
2017-04-02T06:25:02.106Z,13.89
2017-04-02T06:25:42.716Z,13.89
2017-04-02T06:26:23.324Z,13.93
2017-04-02T06:27:03.895Z,13.89
2017-04-02T06:27:44.485Z,13.89
2017-04-02T06:28:25.088Z,13.9
2017-04-02T06:29:05.669Z,13.93
2017-04-02T06:29:46.247Z,13.85
2017-04-02T06:30:29.327Z,13.93
2017-04-02T06:31:09.899Z,13.89
2017-04-02T06:31:50.470Z,13.93
2017-04-02T06:32:31.054Z,13.85
2017-04-02T06:33:11.645Z,13.93
2017-04-02T06:33:52.215Z,13.85
2017-04-02T06:34:32.796Z,13.89
2017-04-02T06:35:13.392Z,13.86
2017-04-02T06:35:54.647Z,13.9
2017-04-02T06:36:35.311Z,13.92
2017-04-02T06:37:15.921Z,13.97
2017-04-02T06:37:56.494Z,14.07
2017-04-02T06:38:37.086Z,14.08
2017-04-02T06:39:17.665Z,14.1
2017-04-02T06:39:58.252Z,14.15
2017-04-02T06:40:38.838Z,14.29
2017-04-02T06:41:19.421Z,14.36
2017-04-02T06:42:00.010Z,14.44
2017-04-02T06:42:40.622Z,14.35
2017-04-02T06:43:21.216Z,14.51
2017-04-02T06:44:01.939Z,14.58
2017-04-02T06:44:42.522Z,14.48
2017-04-02T06:45:23.104Z,14.37
2017-04-02T06:46:03.690Z,14.44
2017-04-02T06:46:44.271Z,14.33
2017-04-02T06:47:24.881Z,14.35
2017-04-02T06:48:05.507Z,14.43
2017-04-02T06:48:46.122Z,14.33
2017-04-02T06:49:26.688Z,14.3
2017-04-02T06:50:07.263Z,14.36
2017-04-02T06:50:47.852Z,14.35
2017-04-02T06:51:28.421Z,14.47
2017-04-02T06:52:08.991Z,14.53
2017-04-02T06:52:49.569Z,14.48
2017-04-02T06:53:30.155Z,14.5
2017-04-02T06:54:10.750Z,14.48
2017-04-02T06:54:51.359Z,14.48
2017-04-02T06:55:31.988Z,14.48
2017-04-02T06:56:12.608Z,14.51
2017-04-02T06:56:53.218Z,14.59
2017-04-02T06:57:33.815Z,14.55
2017-04-02T06:58:14.383Z,14.65
2017-04-02T06:58:54.973Z,14.73
2017-04-02T06:59:35.546Z,14.82
2017-04-02T07:00:16.115Z,14.91
2017-04-02T07:00:56.728Z,14.99
2017-04-02T07:01:37.291Z,15.1
2017-04-02T07:02:17.869Z,15.17
2017-04-02T07:02:58.473Z,15.25
2017-04-02T07:03:39.066Z,15.44
2017-04-02T07:04:19.725Z,15.47
2017-04-02T07:05:00.324Z,15.52
2017-04-02T07:05:40.921Z,15.57
2017-04-02T07:06:21.499Z,15.7
2017-04-02T07:07:03.953Z,15.84
2017-04-02T07:07:44.545Z,15.98
2017-04-02T07:08:25.150Z,16.04
2017-04-02T07:09:05.723Z,16.13
2017-04-02T07:09:46.327Z,16.2
2017-04-02T07:10:26.912Z,16.24
2017-04-02T07:11:07.494Z,16.41
2017-04-02T07:11:48.100Z,16.5
2017-04-02T07:12:28.711Z,16.68
2017-04-02T07:13:09.313Z,16.61
2017-04-02T07:13:49.937Z,16.69
2017-04-02T07:14:30.496Z,16.65
2017-04-02T07:15:11.083Z,16.79
2017-04-02T07:15:51.684Z,16.89
2017-04-02T07:16:32.635Z,16.99
2017-04-02T07:17:13.520Z,17.15
2017-04-02T07:17:54.089Z,17.29
2017-04-02T07:18:34.676Z,17.38
2017-04-02T07:19:15.276Z,17.44
2017-04-02T07:19:55.892Z,17.54
2017-04-02T07:20:36.477Z,17.57
2017-04-02T07:21:17.078Z,17.67
2017-04-02T07:21:57.697Z,17.71
2017-04-02T07:22:38.310Z,17.76
2017-04-02T07:23:18.881Z,17.87
2017-04-02T07:23:59.464Z,17.95
2017-04-02T07:24:40.152Z,17.94
2017-04-02T07:25:20.761Z,17.9
2017-04-02T07:26:01.396Z,17.89
2017-04-02T07:26:41.943Z,17.72
2017-04-02T07:27:22.561Z,17.65
2017-04-02T07:28:03.156Z,17.42
2017-04-02T07:28:43.756Z,17.33
2017-04-02T07:29:24.337Z,17.29
2017-04-02T07:30:04.961Z,17.19
2017-04-02T07:30:45.532Z,17.12
2017-04-02T07:31:26.108Z,17.08
2017-04-02T07:32:06.696Z,17.04
2017-04-02T07:32:47.287Z,17.05
2017-04-02T07:33:27.898Z,16.89
2017-04-02T07:34:08.528Z,16.84
2017-04-02T07:34:49.115Z,16.79
2017-04-02T07:35:29.701Z,16.87
2017-04-02T07:36:10.330Z,16.61
2017-04-02T07:36:50.932Z,16.65
2017-04-02T07:37:31.549Z,16.61
2017-04-02T07:38:12.121Z,16.58
2017-04-02T07:38:52.756Z,16.58
2017-04-02T07:39:33.340Z,16.47
2017-04-02T07:40:13.937Z,16.49
2017-04-02T07:40:54.514Z,16.46
2017-04-02T07:41:35.087Z,16.32
2017-04-02T07:42:15.664Z,16.29
2017-04-02T07:42:56.252Z,16.26
2017-04-02T07:43:36.852Z,16.17
2017-04-02T07:44:17.455Z,16.17
2017-04-02T07:44:58.054Z,16.09
2017-04-02T07:45:38.642Z,16.15
2017-04-02T07:46:19.221Z,16.09
2017-04-02T07:46:59.849Z,16.05
2017-04-02T07:47:41.179Z,16.02
2017-04-02T07:48:23.626Z,16.09
2017-04-02T07:49:04.595Z,16.09
2017-04-02T07:49:46.176Z,16.13
2017-04-02T07:50:30.920Z,16.15
2017-04-02T07:51:15.972Z,16.21
2017-04-02T07:51:56.548Z,16.26
2017-04-02T07:52:37.226Z,16.31
2017-04-02T07:53:17.868Z,16.31
2017-04-02T07:53:58.635Z,16.31
2017-04-02T07:54:39.235Z,16.35
2017-04-02T07:55:19.807Z,16.24
2017-04-02T07:56:00.434Z,16.23
2017-04-02T07:56:41.005Z,16.36
2017-04-02T07:57:21.574Z,16.41
2017-04-02T07:58:02.166Z,16.54
2017-04-02T07:58:42.732Z,16.61
2017-04-02T07:59:23.322Z,16.66
2017-04-02T08:00:03.930Z,16.72
2017-04-02T08:00:44.514Z,16.75
2017-04-02T08:01:25.134Z,16.78
2017-04-02T08:02:05.758Z,16.81
2017-04-02T08:02:46.343Z,16.79
2017-04-02T08:03:26.932Z,16.81
2017-04-02T08:04:07.550Z,16.81
2017-04-02T08:04:48.143Z,16.66
2017-04-02T08:05:28.717Z,16.66
2017-04-02T08:06:09.294Z,16.65
2017-04-02T08:06:49.909Z,16.75
2017-04-02T08:07:30.525Z,16.61
2017-04-02T08:08:11.142Z,16.66
2017-04-02T08:08:51.766Z,16.72
2017-04-02T08:09:32.383Z,16.64
2017-04-02T08:10:13.016Z,16.68
2017-04-02T08:10:53.602Z,16.65
2017-04-02T08:11:34.204Z,16.75
2017-04-02T08:12:14.804Z,16.71
2017-04-02T08:12:55.422Z,16.66
2017-04-02T08:13:36.000Z,16.64
2017-04-02T08:14:16.637Z,16.65
2017-04-02T08:14:57.219Z,16.69
2017-04-02T08:15:37.803Z,16.81
2017-04-02T08:16:18.423Z,16.86
2017-04-02T08:16:59.005Z,16.91
2017-04-02T08:17:39.582Z,17.02
2017-04-02T08:18:20.178Z,17.04
2017-04-02T08:19:00.796Z,17.05
2017-04-02T08:19:41.348Z,17.05
2017-04-02T08:20:21.960Z,17.08
2017-04-02T08:21:02.557Z,17.24
2017-04-02T08:21:43.138Z,17.34
2017-04-02T08:22:23.774Z,17.41
2017-04-02T08:23:04.358Z,17.39
2017-04-02T08:23:44.936Z,17.44
2017-04-02T08:24:25.526Z,17.51
2017-04-02T08:25:06.178Z,17.48
2017-04-02T08:25:47.376Z,17.42
2017-04-02T08:26:27.996Z,17.44
2017-04-02T08:27:08.580Z,17.42
2017-04-02T08:27:49.187Z,17.49
2017-04-02T08:28:30.274Z,17.42
2017-04-02T08:29:13.736Z,17.44
2017-04-02T08:29:56.171Z,17.45
2017-04-02T08:30:36.758Z,17.42
2017-04-02T08:31:18.233Z,17.41
2017-04-02T08:31:58.930Z,17.38
2017-04-02T08:32:41.922Z,17.39
2017-04-02T08:33:23.312Z,17.36
2017-04-02T08:34:06.530Z,17.42
2017-04-02T08:34:48.022Z,17.46
2017-04-02T08:35:29.388Z,17.6
2017-04-02T08:36:10.159Z,17.7
2017-04-02T08:36:50.744Z,17.87
2017-04-02T08:37:31.349Z,17.87
2017-04-02T08:38:12.283Z,17.97
2017-04-02T08:38:55.222Z,18.01
2017-04-02T08:39:37.391Z,18.15
2017-04-02T08:40:19.858Z,18.2
2017-04-02T08:41:02.164Z,18.19
2017-04-02T08:41:43.186Z,18.13
2017-04-02T08:42:28.226Z,18.18
2017-04-02T08:43:10.705Z,18.05
2017-04-02T08:43:52.388Z,18.11
2017-04-02T08:44:33.938Z,18.15
2017-04-02T08:45:16.867Z,18.07
2017-04-02T08:45:59.163Z,18.1
2017-04-02T08:46:40.773Z,18.16
2017-04-02T08:47:22.433Z,18.19
2017-04-02T08:48:05.304Z,18.1
2017-04-02T08:48:48.029Z,18.26
2017-04-02T08:49:28.668Z,18.34
2017-04-02T08:50:09.247Z,18.49
2017-04-02T08:50:51.393Z,18.45
2017-04-02T08:51:32.860Z,18.44
2017-04-02T08:52:13.473Z,18.38
2017-04-02T08:52:54.393Z,18.37
2017-04-02T08:53:36.110Z,18.37
2017-04-02T08:54:18.531Z,18.26
2017-04-02T08:55:00.447Z,18.25
2017-04-02T08:55:41.304Z,18.2
2017-04-02T08:56:23.084Z,18.04
2017-04-02T08:57:04.158Z,17.98
2017-04-02T08:57:44.748Z,17.97
2017-04-02T08:58:25.412Z,17.89
2017-04-02T08:59:05.963Z,17.83
2017-04-02T08:59:46.604Z,17.94
2017-04-02T09:00:27.202Z,17.92
2017-04-02T09:01:07.798Z,17.95
2017-04-02T09:01:48.429Z,18.1
2017-04-02T09:02:29.024Z,18.18
2017-04-02T09:03:09.613Z,18.22
2017-04-02T09:03:50.211Z,18.26
2017-04-02T09:04:30.819Z,18.34